sensor_id;sensor_type;location;lat;lon;timestamp;temperature;humidity
39519;DHT22;25200;53.394;10.414;2023-05-10T00:02:06;14.80;54.10
39519;DHT22;25200;53.394;10.414;2023-05-10T00:04:32;14.80;54.20
39519;DHT22;25200;53.394;10.414;2023-05-10T00:06:58;14.70;54.10
39519;DHT22;25200;53.394;10.414;2023-05-10T00:09:23;14.70;54.20
39519;DHT22;25200;53.394;10.414;2023-05-10T00:11:49;14.70;54.20
39519;DHT22;25200;53.394;10.414;2023-05-10T00:14:15;14.70;54.30
39519;DHT22;25200;53.394;10.414;2023-05-10T00:16:41;14.60;54.30
39519;DHT22;25200;53.394;10.414;2023-05-10T00:19:06;14.60;54.30
39519;DHT22;25200;53.394;10.414;2023-05-10T00:21:32;14.60;54.40
39519;DHT22;25200;53.394;10.414;2023-05-10T00:23:59;14.60;54.40
39519;DHT22;25200;53.394;10.414;2023-05-10T00:26:25;14.50;54.40
39519;DHT22;25200;53.394;10.414;2023-05-10T00:28:50;14.50;54.40
39519;DHT22;25200;53.394;10.414;2023-05-10T00:31:16;14.50;54.60
39519;DHT22;25200;53.394;10.414;2023-05-10T00:33:42;14.50;54.40
39519;DHT22;25200;53.394;10.414;2023-05-10T00:36:07;14.50;54.40
39519;DHT22;25200;53.394;10.414;2023-05-10T00:38:34;14.40;54.40
39519;DHT22;25200;53.394;10.414;2023-05-10T00:40:59;14.40;54.50
39519;DHT22;25200;53.394;10.414;2023-05-10T00:43:25;14.40;54.60
39519;DHT22;25200;53.394;10.414;2023-05-10T00:45:51;14.40;54.60
39519;DHT22;25200;53.394;10.414;2023-05-10T00:48:16;14.30;54.60
39519;DHT22;25200;53.394;10.414;2023-05-10T00:50:42;14.30;54.60
39519;DHT22;25200;53.394;10.414;2023-05-10T00:53:08;14.30;54.60
39519;DHT22;25200;53.394;10.414;2023-05-10T00:55:34;14.30;54.60
39519;DHT22;25200;53.394;10.414;2023-05-10T00:58:00;14.30;54.60
39519;DHT22;25200;53.394;10.414;2023-05-10T01:00:26;14.30;54.60
39519;DHT22;25200;53.394;10.414;2023-05-10T01:02:53;14.20;54.60
39519;DHT22;25200;53.394;10.414;2023-05-10T01:05:19;14.20;54.60
39519;DHT22;25200;53.394;10.414;2023-05-10T01:07:45;14.20;54.70
39519;DHT22;25200;53.394;10.414;2023-05-10T01:10:10;14.20;54.80
39519;DHT22;25200;53.394;10.414;2023-05-10T01:12:39;14.10;55.10
39519;DHT22;25200;53.394;10.414;2023-05-10T01:15:07;14.10;54.90
39519;DHT22;25200;53.394;10.414;2023-05-10T01:17:35;14.10;54.90
39519;DHT22;25200;53.394;10.414;2023-05-10T01:20:03;14.10;54.80
39519;DHT22;25200;53.394;10.414;2023-05-10T01:28:17;14.00;54.90
39519;DHT22;25200;53.394;10.414;2023-05-10T01:33:48;13.90;55.00
39519;DHT22;25200;53.394;10.414;2023-05-10T01:36:26;13.90;55.00
39519;DHT22;25200;53.394;10.414;2023-05-10T01:39:01;13.90;55.00
39519;DHT22;25200;53.394;10.414;2023-05-10T01:42:28;13.90;55.00
39519;DHT22;25200;53.394;10.414;2023-05-10T01:47:11;13.80;55.10
39519;DHT22;25200;53.394;10.414;2023-05-10T01:49:50;13.80;55.20
39519;DHT22;25200;53.394;10.414;2023-05-10T01:52:19;13.80;55.10
39519;DHT22;25200;53.394;10.414;2023-05-10T01:55:06;13.70;55.00
39519;DHT22;25200;53.394;10.414;2023-05-10T01:57:35;13.70;55.10
39519;DHT22;25200;53.394;10.414;2023-05-10T02:00:03;13.70;55.40
39519;DHT22;25200;53.394;10.414;2023-05-10T02:02:31;13.70;55.00
39519;DHT22;25200;53.394;10.414;2023-05-10T02:04:59;13.60;55.10
39519;DHT22;25200;53.394;10.414;2023-05-10T02:07:27;13.60;55.10
39519;DHT22;25200;53.394;10.414;2023-05-10T02:09:54;13.60;55.10
39519;DHT22;25200;53.394;10.414;2023-05-10T02:12:22;13.50;55.10
39519;DHT22;25200;53.394;10.414;2023-05-10T02:14:49;13.50;55.20
39519;DHT22;25200;53.394;10.414;2023-05-10T02:17:16;13.40;55.20
39519;DHT22;25200;53.394;10.414;2023-05-10T02:19:43;13.50;55.30
39519;DHT22;25200;53.394;10.414;2023-05-10T02:22:11;13.40;55.20
39519;DHT22;25200;53.394;10.414;2023-05-10T02:24:38;13.40;55.30
39519;DHT22;25200;53.394;10.414;2023-05-10T02:27:05;13.40;55.30
39519;DHT22;25200;53.394;10.414;2023-05-10T02:29:32;13.30;55.30
39519;DHT22;25200;53.394;10.414;2023-05-10T02:31:59;13.30;55.30
39519;DHT22;25200;53.394;10.414;2023-05-10T02:34:28;13.30;55.40
39519;DHT22;25200;53.394;10.414;2023-05-10T02:36:55;13.30;55.60
39519;DHT22;25200;53.394;10.414;2023-05-10T02:39:22;13.30;55.60
39519;DHT22;25200;53.394;10.414;2023-05-10T02:41:49;13.20;55.40
39519;DHT22;25200;53.394;10.414;2023-05-10T02:44:18;13.20;55.30
39519;DHT22;25200;53.394;10.414;2023-05-10T02:46:44;13.20;55.50
39519;DHT22;25200;53.394;10.414;2023-05-10T02:49:10;13.10;55.50
39519;DHT22;25200;53.394;10.414;2023-05-10T02:51:41;13.10;55.60
39519;DHT22;25200;53.394;10.414;2023-05-10T02:54:15;13.10;55.60
39519;DHT22;25200;53.394;10.414;2023-05-10T02:56:47;13.00;55.60
39519;DHT22;25200;53.394;10.414;2023-05-10T02:59:13;13.00;55.70
39519;DHT22;25200;53.394;10.414;2023-05-10T03:01:39;13.00;55.60
39519;DHT22;25200;53.394;10.414;2023-05-10T03:04:05;13.00;55.70
39519;DHT22;25200;53.394;10.414;2023-05-10T03:06:31;13.00;55.70
39519;DHT22;25200;53.394;10.414;2023-05-10T03:08:57;12.90;55.60
39519;DHT22;25200;53.394;10.414;2023-05-10T03:11:47;12.90;55.60
39519;DHT22;25200;53.394;10.414;2023-05-10T03:16:58;12.80;55.80
39519;DHT22;25200;53.394;10.414;2023-05-10T03:21:52;12.80;55.80
39519;DHT22;25200;53.394;10.414;2023-05-10T03:24:21;12.80;56.00
39519;DHT22;25200;53.394;10.414;2023-05-10T03:26:49;12.80;56.10
39519;DHT22;25200;53.394;10.414;2023-05-10T03:29:16;12.80;56.00
39519;DHT22;25200;53.394;10.414;2023-05-10T03:31:42;12.80;56.00
39519;DHT22;25200;53.394;10.414;2023-05-10T03:34:08;12.70;55.90
39519;DHT22;25200;53.394;10.414;2023-05-10T03:36:34;12.70;55.90
39519;DHT22;25200;53.394;10.414;2023-05-10T03:38:59;12.70;56.00
39519;DHT22;25200;53.394;10.414;2023-05-10T03:41:25;12.80;56.10
39519;DHT22;25200;53.394;10.414;2023-05-10T03:43:51;12.70;55.90
39519;DHT22;25200;53.394;10.414;2023-05-10T03:46:17;12.70;55.90
39519;DHT22;25200;53.394;10.414;2023-05-10T03:48:42;12.70;55.90
39519;DHT22;25200;53.394;10.414;2023-05-10T03:51:08;12.70;56.10
39519;DHT22;25200;53.394;10.414;2023-05-10T03:53:34;12.70;55.90
39519;DHT22;25200;53.394;10.414;2023-05-10T03:55:59;12.70;56.20
39519;DHT22;25200;53.394;10.414;2023-05-10T03:58:25;12.70;56.00
39519;DHT22;25200;53.394;10.414;2023-05-10T04:00:51;12.70;56.00
39519;DHT22;25200;53.394;10.414;2023-05-10T04:03:17;12.80;56.30
39519;DHT22;25200;53.394;10.414;2023-05-10T04:05:43;12.80;56.10
39519;DHT22;25200;53.394;10.414;2023-05-10T04:08:08;12.80;56.20
39519;DHT22;25200;53.394;10.414;2023-05-10T04:10:34;12.80;56.30
39519;DHT22;25200;53.394;10.414;2023-05-10T04:13:00;12.80;56.20
39519;DHT22;25200;53.394;10.414;2023-05-10T04:15:26;12.80;56.10
39519;DHT22;25200;53.394;10.414;2023-05-10T04:17:51;12.80;56.10
39519;DHT22;25200;53.394;10.414;2023-05-10T04:20:17;12.90;56.10
39519;DHT22;25200;53.394;10.414;2023-05-10T04:22:42;12.90;56.40
39519;DHT22;25200;53.394;10.414;2023-05-10T04:25:09;12.90;56.20
39519;DHT22;25200;53.394;10.414;2023-05-10T04:27:34;12.90;56.20
39519;DHT22;25200;53.394;10.414;2023-05-10T04:30:00;13.00;56.30
39519;DHT22;25200;53.394;10.414;2023-05-10T04:32:26;13.00;56.20
39519;DHT22;25200;53.394;10.414;2023-05-10T04:34:51;13.00;56.10
39519;DHT22;25200;53.394;10.414;2023-05-10T04:37:18;13.00;56.20
39519;DHT22;25200;53.394;10.414;2023-05-10T04:39:44;13.00;56.20
39519;DHT22;25200;53.394;10.414;2023-05-10T04:42:09;13.00;56.20
39519;DHT22;25200;53.394;10.414;2023-05-10T04:44:35;13.00;56.20
39519;DHT22;25200;53.394;10.414;2023-05-10T04:47:01;13.00;56.30
39519;DHT22;25200;53.394;10.414;2023-05-10T04:49:28;13.00;56.30
39519;DHT22;25200;53.394;10.414;2023-05-10T04:51:55;13.10;56.40
39519;DHT22;25200;53.394;10.414;2023-05-10T04:54:20;13.10;56.30
39519;DHT22;25200;53.394;10.414;2023-05-10T04:56:46;13.10;56.40
39519;DHT22;25200;53.394;10.414;2023-05-10T04:59:12;13.10;56.40
39519;DHT22;25200;53.394;10.414;2023-05-10T05:01:37;13.10;56.30
39519;DHT22;25200;53.394;10.414;2023-05-10T05:04:03;13.10;56.40
39519;DHT22;25200;53.394;10.414;2023-05-10T05:06:29;13.10;56.40
39519;DHT22;25200;53.394;10.414;2023-05-10T05:08:54;13.20;56.40
39519;DHT22;25200;53.394;10.414;2023-05-10T05:11:20;13.20;56.40
39519;DHT22;25200;53.394;10.414;2023-05-10T05:13:46;13.30;56.50
39519;DHT22;25200;53.394;10.414;2023-05-10T05:16:12;13.30;56.40
39519;DHT22;25200;53.394;10.414;2023-05-10T05:18:37;13.40;56.50
39519;DHT22;25200;53.394;10.414;2023-05-10T05:21:03;13.40;56.40
39519;DHT22;25200;53.394;10.414;2023-05-10T05:23:38;13.50;56.40
39519;DHT22;25200;53.394;10.414;2023-05-10T05:26:03;13.50;56.40
39519;DHT22;25200;53.394;10.414;2023-05-10T05:28:29;13.50;56.30
39519;DHT22;25200;53.394;10.414;2023-05-10T05:30:58;13.60;56.30
39519;DHT22;25200;53.394;10.414;2023-05-10T05:33:23;13.60;56.20
39519;DHT22;25200;53.394;10.414;2023-05-10T05:35:49;13.60;56.20
39519;DHT22;25200;53.394;10.414;2023-05-10T05:38:16;13.70;56.60
39519;DHT22;25200;53.394;10.414;2023-05-10T05:40:42;13.70;56.20
39519;DHT22;25200;53.394;10.414;2023-05-10T05:43:08;13.70;56.10
39519;DHT22;25200;53.394;10.414;2023-05-10T05:45:34;13.80;56.10
39519;DHT22;25200;53.394;10.414;2023-05-10T05:47:59;13.90;56.20
39519;DHT22;25200;53.394;10.414;2023-05-10T05:50:25;13.90;56.10
39519;DHT22;25200;53.394;10.414;2023-05-10T05:52:51;14.00;56.00
39519;DHT22;25200;53.394;10.414;2023-05-10T05:55:16;14.00;56.10
39519;DHT22;25200;53.394;10.414;2023-05-10T05:57:42;14.10;56.10
39519;DHT22;25200;53.394;10.414;2023-05-10T06:00:08;14.10;56.00
39519;DHT22;25200;53.394;10.414;2023-05-10T06:02:34;14.20;56.10
39519;DHT22;25200;53.394;10.414;2023-05-10T06:04:59;14.30;56.10
39519;DHT22;25200;53.394;10.414;2023-05-10T06:07:25;14.30;56.00
39519;DHT22;25200;53.394;10.414;2023-05-10T06:09:51;14.40;56.10
39519;DHT22;25200;53.394;10.414;2023-05-10T06:12:16;14.40;56.10
39519;DHT22;25200;53.394;10.414;2023-05-10T06:14:42;14.50;56.20
39519;DHT22;25200;53.394;10.414;2023-05-10T06:17:07;14.50;56.10
39519;DHT22;25200;53.394;10.414;2023-05-10T06:19:33;14.60;56.00
39519;DHT22;25200;53.394;10.414;2023-05-10T06:21:58;14.70;56.10
39519;DHT22;25200;53.394;10.414;2023-05-10T06:24:24;14.70;56.10
39519;DHT22;25200;53.394;10.414;2023-05-10T06:26:50;14.80;56.10
39519;DHT22;25200;53.394;10.414;2023-05-10T06:29:15;14.90;56.10
39519;DHT22;25200;53.394;10.414;2023-05-10T06:31:41;14.90;56.10
39519;DHT22;25200;53.394;10.414;2023-05-10T06:34:07;15.00;56.10
39519;DHT22;25200;53.394;10.414;2023-05-10T06:36:33;15.10;56.10
39519;DHT22;25200;53.394;10.414;2023-05-10T06:38:59;15.20;56.20
39519;DHT22;25200;53.394;10.414;2023-05-10T06:41:24;15.30;56.50
39519;DHT22;25200;53.394;10.414;2023-05-10T06:43:50;15.40;56.30
39519;DHT22;25200;53.394;10.414;2023-05-10T06:46:16;15.50;56.30
39519;DHT22;25200;53.394;10.414;2023-05-10T06:48:41;15.60;56.20
39519;DHT22;25200;53.394;10.414;2023-05-10T06:51:07;15.70;56.20
39519;DHT22;25200;53.394;10.414;2023-05-10T06:53:32;15.80;56.10
39519;DHT22;25200;53.394;10.414;2023-05-10T06:56:01;16.00;56.20
39519;DHT22;25200;53.394;10.414;2023-05-10T06:58:28;16.10;56.20
39519;DHT22;25200;53.394;10.414;2023-05-10T07:00:53;16.20;56.10
39519;DHT22;25200;53.394;10.414;2023-05-10T07:03:19;16.30;55.90
39519;DHT22;25200;53.394;10.414;2023-05-10T07:05:45;16.30;55.80
39519;DHT22;25200;53.394;10.414;2023-05-10T07:08:10;16.30;55.80
39519;DHT22;25200;53.394;10.414;2023-05-10T07:10:36;16.40;55.90
39519;DHT22;25200;53.394;10.414;2023-05-10T07:13:01;16.40;55.90
39519;DHT22;25200;53.394;10.414;2023-05-10T07:15:27;16.40;55.90
39519;DHT22;25200;53.394;10.414;2023-05-10T07:17:53;16.50;55.90
39519;DHT22;25200;53.394;10.414;2023-05-10T07:20:19;16.60;55.90
39519;DHT22;25200;53.394;10.414;2023-05-10T07:22:45;16.70;56.00
39519;DHT22;25200;53.394;10.414;2023-05-10T07:25:10;16.70;56.00
39519;DHT22;25200;53.394;10.414;2023-05-10T07:27:36;16.90;56.00
39519;DHT22;25200;53.394;10.414;2023-05-10T07:30:01;16.90;55.90
39519;DHT22;25200;53.394;10.414;2023-05-10T07:32:27;17.00;56.00
39519;DHT22;25200;53.394;10.414;2023-05-10T07:34:53;17.20;55.90
39519;DHT22;25200;53.394;10.414;2023-05-10T07:37:19;17.30;55.90
39519;DHT22;25200;53.394;10.414;2023-05-10T07:39:44;17.40;55.80
39519;DHT22;25200;53.394;10.414;2023-05-10T07:42:10;17.50;55.80
39519;DHT22;25200;53.394;10.414;2023-05-10T07:44:35;17.60;55.80
39519;DHT22;25200;53.394;10.414;2023-05-10T07:47:01;17.80;55.60
39519;DHT22;25200;53.394;10.414;2023-05-10T07:49:27;17.90;55.70
39519;DHT22;25200;53.394;10.414;2023-05-10T07:51:52;18.00;55.80
39519;DHT22;25200;53.394;10.414;2023-05-10T07:54:18;18.20;55.80
39519;DHT22;25200;53.394;10.414;2023-05-10T07:56:43;18.40;55.70
39519;DHT22;25200;53.394;10.414;2023-05-10T07:59:15;18.50;55.30
39519;DHT22;25200;53.394;10.414;2023-05-10T08:01:42;18.60;55.30
39519;DHT22;25200;53.394;10.414;2023-05-10T08:04:08;18.60;55.20
39519;DHT22;25200;53.394;10.414;2023-05-10T08:06:34;18.70;55.20
39519;DHT22;25200;53.394;10.414;2023-05-10T08:08:59;18.70;55.30
39519;DHT22;25200;53.394;10.414;2023-05-10T08:11:25;18.80;55.40
39519;DHT22;25200;53.394;10.414;2023-05-10T08:13:53;18.90;55.40
39519;DHT22;25200;53.394;10.414;2023-05-10T08:16:19;19.10;55.60
39519;DHT22;25200;53.394;10.414;2023-05-10T08:18:46;19.20;56.00
39519;DHT22;25200;53.394;10.414;2023-05-10T08:21:16;19.30;55.60
39519;DHT22;25200;53.394;10.414;2023-05-10T08:23:41;19.40;55.50
39519;DHT22;25200;53.394;10.414;2023-05-10T08:26:08;19.50;55.60
39519;DHT22;25200;53.394;10.414;2023-05-10T08:28:34;19.70;55.60
39519;DHT22;25200;53.394;10.414;2023-05-10T08:31:00;19.90;55.50
39519;DHT22;25200;53.394;10.414;2023-05-10T08:33:25;20.00;55.40
39519;DHT22;25200;53.394;10.414;2023-05-10T08:35:51;20.20;55.40
39519;DHT22;25200;53.394;10.414;2023-05-10T08:38:17;20.40;55.50
39519;DHT22;25200;53.394;10.414;2023-05-10T08:40:44;20.50;55.40
39519;DHT22;25200;53.394;10.414;2023-05-10T08:43:11;20.70;55.40
39519;DHT22;25200;53.394;10.414;2023-05-10T08:45:39;20.80;55.30
39519;DHT22;25200;53.394;10.414;2023-05-10T08:48:06;20.90;55.30
39519;DHT22;25200;53.394;10.414;2023-05-10T08:50:37;21.00;55.30
39519;DHT22;25200;53.394;10.414;2023-05-10T08:53:05;21.00;55.10
39519;DHT22;25200;53.394;10.414;2023-05-10T08:55:32;21.00;55.00
39519;DHT22;25200;53.394;10.414;2023-05-10T08:57:59;20.90;55.00
39519;DHT22;25200;53.394;10.414;2023-05-10T09:00:25;20.80;54.90
39519;DHT22;25200;53.394;10.414;2023-05-10T09:02:51;20.70;54.90
39519;DHT22;25200;53.394;10.414;2023-05-10T09:05:17;20.60;54.90
39519;DHT22;25200;53.394;10.414;2023-05-10T09:07:43;20.50;55.00
39519;DHT22;25200;53.394;10.414;2023-05-10T09:10:09;20.40;54.90
39519;DHT22;25200;53.394;10.414;2023-05-10T09:12:36;20.20;54.70
39519;DHT22;25200;53.394;10.414;2023-05-10T09:15:02;20.10;54.80
39519;DHT22;25200;53.394;10.414;2023-05-10T09:17:30;19.90;54.90
39519;DHT22;25200;53.394;10.414;2023-05-10T09:20:03;19.90;55.00
39519;DHT22;25200;53.394;10.414;2023-05-10T09:22:30;19.80;55.10
39519;DHT22;25200;53.394;10.414;2023-05-10T09:25:15;19.70;55.20
39519;DHT22;25200;53.394;10.414;2023-05-10T09:27:44;19.70;55.50
39519;DHT22;25200;53.394;10.414;2023-05-10T09:30:15;19.70;55.50
39519;DHT22;25200;53.394;10.414;2023-05-10T09:32:45;19.70;55.40
39519;DHT22;25200;53.394;10.414;2023-05-10T09:35:17;19.60;55.30
39519;DHT22;25200;53.394;10.414;2023-05-10T09:37:45;19.60;55.40
39519;DHT22;25200;53.394;10.414;2023-05-10T09:42:54;19.50;55.40
39519;DHT22;25200;53.394;10.414;2023-05-10T09:45:20;19.40;55.50
39519;DHT22;25200;53.394;10.414;2023-05-10T09:47:46;19.30;55.30
39519;DHT22;25200;53.394;10.414;2023-05-10T09:50:12;19.30;55.40
39519;DHT22;25200;53.394;10.414;2023-05-10T09:52:57;19.30;55.60
39519;DHT22;25200;53.394;10.414;2023-05-10T09:58:02;19.30;55.90
39519;DHT22;25200;53.394;10.414;2023-05-10T10:00:28;19.40;55.80
39519;DHT22;25200;53.394;10.414;2023-05-10T10:02:55;19.40;55.80
39519;DHT22;25200;53.394;10.414;2023-05-10T10:05:31;19.40;55.80
39519;DHT22;25200;53.394;10.414;2023-05-10T10:07:57;19.30;55.60
39519;DHT22;25200;53.394;10.414;2023-05-10T10:10:27;19.20;55.60
39519;DHT22;25200;53.394;10.414;2023-05-10T10:12:54;19.10;55.70
39519;DHT22;25200;53.394;10.414;2023-05-10T10:15:23;19.00;55.70
39519;DHT22;25200;53.394;10.414;2023-05-10T10:17:50;18.80;55.90
39519;DHT22;25200;53.394;10.414;2023-05-10T10:20:16;18.70;56.00
39519;DHT22;25200;53.394;10.414;2023-05-10T10:22:42;18.60;56.00
39519;DHT22;25200;53.394;10.414;2023-05-10T10:25:14;18.50;56.30
39519;DHT22;25200;53.394;10.414;2023-05-10T10:35:59;18.30;56.80
39519;DHT22;25200;53.394;10.414;2023-05-10T10:38:25;18.20;56.90
39519;DHT22;25200;53.394;10.414;2023-05-10T10:41:12;18.10;56.80
39519;DHT22;25200;53.394;10.414;2023-05-10T10:49:26;17.80;57.10
39519;DHT22;25200;53.394;10.414;2023-05-10T10:57:31;17.60;57.60
39519;DHT22;25200;53.394;10.414;2023-05-10T11:00:19;17.60;57.90
39519;DHT22;25200;53.394;10.414;2023-05-10T11:02:47;17.50;58.10
39519;DHT22;25200;53.394;10.414;2023-05-10T11:08:09;17.30;58.20
39519;DHT22;25200;53.394;10.414;2023-05-10T11:10:35;17.30;58.40
39519;DHT22;25200;53.394;10.414;2023-05-10T11:13:01;17.30;58.40
39519;DHT22;25200;53.394;10.414;2023-05-10T11:15:39;17.30;58.70
39519;DHT22;25200;53.394;10.414;2023-05-10T11:18:20;17.20;58.80
39519;DHT22;25200;53.394;10.414;2023-05-10T11:23:18;17.20;58.90
39519;DHT22;25200;53.394;10.414;2023-05-10T11:25:45;17.10;58.90
39519;DHT22;25200;53.394;10.414;2023-05-10T11:28:11;17.10;58.90
39519;DHT22;25200;53.394;10.414;2023-05-10T11:30:41;17.10;58.90
39519;DHT22;25200;53.394;10.414;2023-05-10T11:33:09;17.10;58.90
39519;DHT22;25200;53.394;10.414;2023-05-10T11:35:39;17.10;58.90
39519;DHT22;25200;53.394;10.414;2023-05-10T11:38:09;17.10;59.00
39519;DHT22;25200;53.394;10.414;2023-05-10T11:40:36;17.10;59.10
39519;DHT22;25200;53.394;10.414;2023-05-10T11:43:03;17.10;59.10
39519;DHT22;25200;53.394;10.414;2023-05-10T11:45:32;17.10;59.20
39519;DHT22;25200;53.394;10.414;2023-05-10T11:47:58;17.10;59.20
39519;DHT22;25200;53.394;10.414;2023-05-10T11:50:24;17.20;59.30
39519;DHT22;25200;53.394;10.414;2023-05-10T11:52:52;17.20;59.10
39519;DHT22;25200;53.394;10.414;2023-05-10T11:55:20;17.20;59.30
39519;DHT22;25200;53.394;10.414;2023-05-10T11:57:46;17.30;59.20
39519;DHT22;25200;53.394;10.414;2023-05-10T12:00:15;17.30;59.40
39519;DHT22;25200;53.394;10.414;2023-05-10T12:02:41;17.30;59.40
39519;DHT22;25200;53.394;10.414;2023-05-10T12:05:07;17.40;59.30
39519;DHT22;25200;53.394;10.414;2023-05-10T12:07:33;17.40;59.40
39519;DHT22;25200;53.394;10.414;2023-05-10T12:12:42;17.50;59.50
39519;DHT22;25200;53.394;10.414;2023-05-10T12:17:40;17.60;59.70
39519;DHT22;25200;53.394;10.414;2023-05-10T12:22:52;17.60;59.50
39519;DHT22;25200;53.394;10.414;2023-05-10T12:25:19;17.60;59.90
39519;DHT22;25200;53.394;10.414;2023-05-10T12:27:53;17.60;59.80
39519;DHT22;25200;53.394;10.414;2023-05-10T12:30:29;17.60;59.80
39519;DHT22;25200;53.394;10.414;2023-05-10T12:33:01;17.60;59.90
39519;DHT22;25200;53.394;10.414;2023-05-10T12:35:30;17.60;59.80
39519;DHT22;25200;53.394;10.414;2023-05-10T12:37:56;17.60;59.60
39519;DHT22;25200;53.394;10.414;2023-05-10T12:40:22;17.60;59.70
39519;DHT22;25200;53.394;10.414;2023-05-10T12:42:47;17.60;59.80
39519;DHT22;25200;53.394;10.414;2023-05-10T12:45:14;17.60;60.00
39519;DHT22;25200;53.394;10.414;2023-05-10T12:47:40;17.60;59.90
39519;DHT22;25200;53.394;10.414;2023-05-10T12:50:06;17.60;59.90
39519;DHT22;25200;53.394;10.414;2023-05-10T12:52:32;17.60;60.00
39519;DHT22;25200;53.394;10.414;2023-05-10T12:54:58;17.60;59.90
39519;DHT22;25200;53.394;10.414;2023-05-10T12:57:25;17.60;60.20
39519;DHT22;25200;53.394;10.414;2023-05-10T12:59:50;17.60;60.30
39519;DHT22;25200;53.394;10.414;2023-05-10T13:02:16;17.60;60.10
39519;DHT22;25200;53.394;10.414;2023-05-10T13:04:46;17.60;60.10
39519;DHT22;25200;53.394;10.414;2023-05-10T13:07:12;17.60;60.00
39519;DHT22;25200;53.394;10.414;2023-05-10T13:09:38;17.70;60.20
39519;DHT22;25200;53.394;10.414;2023-05-10T13:12:03;17.80;60.20
39519;DHT22;25200;53.394;10.414;2023-05-10T13:14:29;17.80;60.30
39519;DHT22;25200;53.394;10.414;2023-05-10T13:16:55;17.90;60.40
39519;DHT22;25200;53.394;10.414;2023-05-10T13:19:21;17.90;61.10
39519;DHT22;25200;53.394;10.414;2023-05-10T13:21:47;18.00;60.60
39519;DHT22;25200;53.394;10.414;2023-05-10T13:24:12;18.00;60.30
39519;DHT22;25200;53.394;10.414;2023-05-10T13:26:42;18.10;60.70
39519;DHT22;25200;53.394;10.414;2023-05-10T13:29:08;18.10;60.70
39519;DHT22;25200;53.394;10.414;2023-05-10T13:31:34;18.20;60.80
39519;DHT22;25200;53.394;10.414;2023-05-10T13:34:00;18.20;61.40
39519;DHT22;25200;53.394;10.414;2023-05-10T13:36:26;18.30;60.90
39519;DHT22;25200;53.394;10.414;2023-05-10T13:38:51;18.30;61.40
39519;DHT22;25200;53.394;10.414;2023-05-10T13:41:17;18.40;61.60
39519;DHT22;25200;53.394;10.414;2023-05-10T13:43:43;18.60;62.40
39519;DHT22;25200;53.394;10.414;2023-05-10T13:46:08;18.70;61.80
39519;DHT22;25200;53.394;10.414;2023-05-10T13:48:34;18.80;61.70
39519;DHT22;25200;53.394;10.414;2023-05-10T13:50:59;18.90;61.40
39519;DHT22;25200;53.394;10.414;2023-05-10T13:53:25;19.00;61.80
39519;DHT22;25200;53.394;10.414;2023-05-10T13:55:51;19.00;61.70
39519;DHT22;25200;53.394;10.414;2023-05-10T13:58:16;19.00;61.70
39519;DHT22;25200;53.394;10.414;2023-05-10T14:00:42;19.10;61.90
39519;DHT22;25200;53.394;10.414;2023-05-10T14:03:08;19.00;61.90
39519;DHT22;25200;53.394;10.414;2023-05-10T14:05:36;19.10;61.40
39519;DHT22;25200;53.394;10.414;2023-05-10T14:08:01;19.10;61.50
39519;DHT22;25200;53.394;10.414;2023-05-10T14:10:29;19.10;61.50
39519;DHT22;25200;53.394;10.414;2023-05-10T14:12:55;19.10;61.70
39519;DHT22;25200;53.394;10.414;2023-05-10T14:15:21;19.10;61.90
39519;DHT22;25200;53.394;10.414;2023-05-10T14:17:46;19.20;61.80
39519;DHT22;25200;53.394;10.414;2023-05-10T14:20:12;19.20;62.80
39519;DHT22;25200;53.394;10.414;2023-05-10T14:22:37;19.30;62.70
39519;DHT22;25200;53.394;10.414;2023-05-10T14:25:03;19.40;62.30
39519;DHT22;25200;53.394;10.414;2023-05-10T14:27:29;19.40;61.90
39519;DHT22;25200;53.394;10.414;2023-05-10T14:29:55;19.50;62.10
39519;DHT22;25200;53.394;10.414;2023-05-10T14:32:21;19.60;62.70
39519;DHT22;25200;53.394;10.414;2023-05-10T14:34:46;19.70;62.40
39519;DHT22;25200;53.394;10.414;2023-05-10T14:37:13;19.70;62.40
39519;DHT22;25200;53.394;10.414;2023-05-10T14:39:39;19.80;62.30
39519;DHT22;25200;53.394;10.414;2023-05-10T14:42:05;19.80;62.60
39519;DHT22;25200;53.394;10.414;2023-05-10T14:44:31;19.80;62.40
39519;DHT22;25200;53.394;10.414;2023-05-10T14:46:56;19.90;62.80
39519;DHT22;25200;53.394;10.414;2023-05-10T14:49:22;20.00;63.60
39519;DHT22;25200;53.394;10.414;2023-05-10T14:51:50;20.00;63.10
39519;DHT22;25200;53.394;10.414;2023-05-10T14:54:15;20.10;63.20
39519;DHT22;25200;53.394;10.414;2023-05-10T14:56:41;20.00;62.90
39519;DHT22;25200;53.394;10.414;2023-05-10T14:59:07;20.00;62.80
39519;DHT22;25200;53.394;10.414;2023-05-10T15:01:33;20.00;63.20
39519;DHT22;25200;53.394;10.414;2023-05-10T15:04:03;20.00;62.90
39519;DHT22;25200;53.394;10.414;2023-05-10T15:06:35;20.10;63.70
39519;DHT22;25200;53.394;10.414;2023-05-10T15:09:01;20.10;63.70
39519;DHT22;25200;53.394;10.414;2023-05-10T15:11:28;20.10;64.00
39519;DHT22;25200;53.394;10.414;2023-05-10T15:13:54;20.10;64.00
39519;DHT22;25200;53.394;10.414;2023-05-10T15:16:20;20.10;64.30
39519;DHT22;25200;53.394;10.414;2023-05-10T15:18:45;20.20;64.30
39519;DHT22;25200;53.394;10.414;2023-05-10T15:21:11;20.30;64.10
39519;DHT22;25200;53.394;10.414;2023-05-10T15:23:37;20.30;64.10
39519;DHT22;25200;53.394;10.414;2023-05-10T15:26:03;20.30;63.90
39519;DHT22;25200;53.394;10.414;2023-05-10T15:28:28;20.20;64.00
39519;DHT22;25200;53.394;10.414;2023-05-10T15:30:54;20.20;64.10
39519;DHT22;25200;53.394;10.414;2023-05-10T15:33:20;20.20;64.20
39519;DHT22;25200;53.394;10.414;2023-05-10T15:35:46;20.20;63.80
39519;DHT22;25200;53.394;10.414;2023-05-10T15:38:11;20.10;63.80
39519;DHT22;25200;53.394;10.414;2023-05-10T15:40:37;20.10;64.10
39519;DHT22;25200;53.394;10.414;2023-05-10T15:43:02;20.10;63.80
39519;DHT22;25200;53.394;10.414;2023-05-10T15:45:28;20.10;64.50
39519;DHT22;25200;53.394;10.414;2023-05-10T15:47:54;20.10;64.20
39519;DHT22;25200;53.394;10.414;2023-05-10T15:50:20;20.10;64.20
39519;DHT22;25200;53.394;10.414;2023-05-10T15:52:46;20.10;64.70
39519;DHT22;25200;53.394;10.414;2023-05-10T15:55:12;20.10;64.60
39519;DHT22;25200;53.394;10.414;2023-05-10T15:57:39;20.10;64.40
39519;DHT22;25200;53.394;10.414;2023-05-10T16:00:11;20.00;64.40
39519;DHT22;25200;53.394;10.414;2023-05-10T16:02:37;20.00;65.20
39519;DHT22;25200;53.394;10.414;2023-05-10T16:05:03;20.00;64.40
39519;DHT22;25200;53.394;10.414;2023-05-10T16:07:29;20.00;64.40
39519;DHT22;25200;53.394;10.414;2023-05-10T16:09:54;20.00;65.00